Time;durP1;ratioP1;P1;durP2;ratioP2;P2;SDS_P1;SDS_P2;PMS_P1;PMS_P2;Temp;Humidity;BMP_temperature;BMP_pressure;BME280_temperature;BME280_humidity;BME280_pressure;Samples;Min_cycle;Max_cycle;Signal;HPM_P1;HPM_P2
2023/07/25 00:01:30;;;;;;;6.45;1.95;;;;;;;;;;5009080;28;25151;-63
2023/07/25 00:03:56;;;;;;;9.55;2.00;;;;;;;;;;5006419;28;25063;-64
2023/07/25 00:06:22;;;;;;;3.63;1.90;;;;;;;;;;5020592;28;25077;-64
2023/07/25 00:08:48;;;;;;;9.00;2.55;;;;;;;;;;5018779;28;25059;-63
2023/07/25 00:11:15;;;;;;;8.20;1.88;;;;;;;;;;5001812;28;25072;-63
2023/07/25 00:13:41;;;;;;;6.07;2.08;;;;;;;;;;5014532;28;25146;-63
2023/07/25 00:16:07;;;;;;;8.45;2.53;;;;;;;;;;5000403;28;25077;-63
2023/07/25 00:18:34;;;;;;;8.77;2.10;;;;;;;;;;5014485;28;25119;-63
2023/07/25 00:21:00;;;;;;;4.63;1.73;;;;;;;;;;5003858;28;25163;-64
2023/07/25 00:23:26;;;;;;;4.32;2.22;;;;;;;;;;5007299;28;25069;-64
2023/07/25 00:25:52;;;;;;;5.72;1.98;;;;;;;;;;5014833;28;25157;-63
2023/07/25 00:28:18;;;;;;;5.65;2.15;;;;;;;;;;5003172;28;25126;-64
2023/07/25 00:30:43;;;;;;;7.93;1.85;;;;;;;;;;5013421;28;25065;-62
2023/07/25 00:33:09;;;;;;;8.88;2.30;;;;;;;;;;5000429;28;25066;-63
2023/07/25 00:35:35;;;;;;;11.05;2.03;;;;;;;;;;5016916;28;25072;-63
2023/07/25 00:38:04;;;;;;;8.88;2.38;;;;;;;;;;5017764;28;25046;-63
2023/07/25 00:40:30;;;;;;;6.35;1.95;;;;;;;;;;5018794;28;25043;-63
2023/07/25 00:42:56;;;;;;;7.30;2.53;;;;;;;;;;5018880;28;25073;-63
2023/07/25 00:45:22;;;;;;;5.88;2.28;;;;;;;;;;5013572;28;25162;-64
2023/07/25 00:47:49;;;;;;;7.68;2.22;;;;;;;;;;5017828;28;25059;-63
2023/07/25 00:50:15;;;;;;;7.82;2.22;;;;;;;;;;5019134;28;25070;-64
2023/07/25 00:52:42;;;;;;;11.10;2.50;;;;;;;;;;5016836;28;25079;-64
2023/07/25 00:55:08;;;;;;;6.82;3.03;;;;;;;;;;5009625;28;25140;-63
2023/07/25 00:57:34;;;;;;;8.77;2.50;;;;;;;;;;5008726;28;25086;-63
2023/07/25 01:00:00;;;;;;;5.22;2.00;;;;;;;;;;5018355;28;25114;-63
2023/07/25 01:02:26;;;;;;;9.70;2.15;;;;;;;;;;5018236;28;25063;-64
2023/07/25 01:04:52;;;;;;;9.55;2.75;;;;;;;;;;5016186;28;25064;-64
2023/07/25 01:07:18;;;;;;;4.30;1.88;;;;;;;;;;5009187;28;25067;-63
2023/07/25 01:09:45;;;;;;;8.80;2.63;;;;;;;;;;5010478;28;25058;-65
2023/07/25 01:12:11;;;;;;;4.05;2.10;;;;;;;;;;5006420;28;25079;-64
2023/07/25 01:14:38;;;;;;;7.45;2.30;;;;;;;;;;5010403;28;25068;-63
2023/07/25 01:17:09;;;;;;;5.60;1.88;;;;;;;;;;5007096;28;25132;-63
2023/07/25 01:19:36;;;;;;;5.63;2.33;;;;;;;;;;5012551;28;25125;-63
2023/07/25 01:22:02;;;;;;;5.82;2.58;;;;;;;;;;5002669;28;25168;-64
2023/07/25 01:24:28;;;;;;;8.07;2.65;;;;;;;;;;5006666;28;25007;-64
2023/07/25 01:26:55;;;;;;;6.10;2.30;;;;;;;;;;5010818;28;25132;-64
2023/07/25 01:29:21;;;;;;;8.48;1.90;;;;;;;;;;5002857;28;25096;-64
2023/07/25 01:31:47;;;;;;;6.10;2.28;;;;;;;;;;5009988;28;25091;-63
2023/07/25 01:34:13;;;;;;;10.02;2.58;;;;;;;;;;5005312;28;25076;-64
2023/07/25 01:36:39;;;;;;;11.52;2.47;;;;;;;;;;5003979;28;25062;-63
2023/07/25 01:39:05;;;;;;;9.82;2.30;;;;;;;;;;5028480;28;25152;-63
2023/07/25 01:41:31;;;;;;;7.40;2.38;;;;;;;;;;5013787;28;25101;-63
2023/07/25 01:43:57;;;;;;;7.97;2.00;;;;;;;;;;5008706;28;25103;-63
2023/07/25 01:46:23;;;;;;;8.50;3.35;;;;;;;;;;5010361;28;25081;-63
2023/07/25 01:48:49;;;;;;;10.00;2.90;;;;;;;;;;5014772;28;25110;-64
2023/07/25 01:51:15;;;;;;;11.75;2.70;;;;;;;;;;5007811;28;25104;-63
2023/07/25 01:53:41;;;;;;;5.85;2.10;;;;;;;;;;5002520;28;25059;-64
2023/07/25 01:56:07;;;;;;;9.00;2.78;;;;;;;;;;5012218;28;25085;-64
2023/07/25 01:58:33;;;;;;;8.02;2.70;;;;;;;;;;5013108;28;25047;-63
2023/07/25 02:00:59;;;;;;;7.13;1.88;;;;;;;;;;5008768;28;25062;-64
2023/07/25 02:03:25;;;;;;;4.65;2.47;;;;;;;;;;5008007;28;25120;-64
2023/07/25 02:05:51;;;;;;;5.93;2.08;;;;;;;;;;5004054;28;25084;-63
2023/07/25 02:08:17;;;;;;;10.57;2.47;;;;;;;;;;5015498;28;25061;-63
2023/07/25 02:10:43;;;;;;;9.55;2.90;;;;;;;;;;5014180;28;25054;-64
2023/07/25 02:13:09;;;;;;;4.70;2.67;;;;;;;;;;5017783;28;25066;-64
2023/07/25 02:15:36;;;;;;;8.98;2.60;;;;;;;;;;5013395;28;25062;-64
2023/07/25 02:18:03;;;;;;;12.40;2.60;;;;;;;;;;5007859;28;25066;-63
2023/07/25 02:20:32;;;;;;;8.73;2.63;;;;;;;;;;5014781;28;25077;-64
2023/07/25 02:23:01;;;;;;;7.63;2.40;;;;;;;;;;5007718;28;25135;-63
2023/07/25 02:25:28;;;;;;;4.40;1.77;;;;;;;;;;5000878;28;25076;-64
2023/07/25 02:27:54;;;;;;;3.03;2.10;;;;;;;;;;5007211;28;25080;-63
2023/07/25 02:30:21;;;;;;;10.35;3.30;;;;;;;;;;5016749;28;25066;-63
2023/07/25 02:32:48;;;;;;;4.65;2.20;;;;;;;;;;5014451;28;25093;-64
2023/07/25 02:35:14;;;;;;;8.68;2.65;;;;;;;;;;5013849;28;25058;-64
2023/07/25 02:37:40;;;;;;;11.73;2.60;;;;;;;;;;5016199;28;25047;-64
2023/07/25 02:40:07;;;;;;;6.30;2.63;;;;;;;;;;5014070;28;25108;-64
2023/07/25 02:42:33;;;;;;;7.93;2.70;;;;;;;;;;5004433;28;25069;-64
2023/07/25 02:44:59;;;;;;;12.40;3.25;;;;;;;;;;5011704;28;25121;-64
2023/07/25 02:47:25;;;;;;;5.50;2.22;;;;;;;;;;5016821;28;25091;-63
2023/07/25 02:49:51;;;;;;;7.57;2.40;;;;;;;;;;5005686;28;25093;-64
2023/07/25 02:52:18;;;;;;;5.68;2.63;;;;;;;;;;5018281;28;25159;-63
2023/07/25 02:54:44;;;;;;;5.65;2.05;;;;;;;;;;5022064;28;25083;-64
2023/07/25 02:57:10;;;;;;;10.60;2.63;;;;;;;;;;5015669;28;25108;-63
2023/07/25 02:59:35;;;;;;;4.25;2.30;;;;;;;;;;5015770;28;25121;-65
2023/07/25 03:02:01;;;;;;;4.88;2.17;;;;;;;;;;5009511;28;25071;-64
2023/07/25 03:04:27;;;;;;;6.13;2.03;;;;;;;;;;5012728;28;25064;-64
2023/07/25 03:06:53;;;;;;;6.55;2.10;;;;;;;;;;5012895;28;25108;-64
2023/07/25 03:09:19;;;;;;;5.20;2.25;;;;;;;;;;5018125;28;25104;-63
2023/07/25 03:11:45;;;;;;;7.30;2.25;;;;;;;;;;4999189;28;25089;-62
2023/07/25 03:14:11;;;;;;;7.28;2.25;;;;;;;;;;5009410;28;25075;-64
2023/07/25 03:16:37;;;;;;;8.45;2.50;;;;;;;;;;5014280;28;25066;-64
2023/07/25 03:19:03;;;;;;;9.90;2.67;;;;;;;;;;5008215;28;25112;-63
2023/07/25 03:21:29;;;;;;;7.05;2.63;;;;;;;;;;5003945;28;25064;-64
2023/07/25 03:23:56;;;;;;;3.95;2.10;;;;;;;;;;5006627;28;25061;-63
2023/07/25 03:26:22;;;;;;;4.47;1.98;;;;;;;;;;5015859;28;25073;-64
2023/07/25 03:28:48;;;;;;;9.38;2.33;;;;;;;;;;5022405;28;25133;-64
2023/07/25 03:31:14;;;;;;;8.57;2.42;;;;;;;;;;5022427;28;25067;-64
2023/07/25 03:33:40;;;;;;;4.97;2.78;;;;;;;;;;5025097;28;25078;-64
2023/07/25 03:36:07;;;;;;;8.70;2.60;;;;;;;;;;5016133;28;25104;-63
2023/07/25 03:38:33;;;;;;;8.95;2.63;;;;;;;;;;5022187;28;25064;-64
2023/07/25 03:40:59;;;;;;;10.15;2.55;;;;;;;;;;5017935;28;25056;-64
2023/07/25 03:43:25;;;;;;;10.25;2.45;;;;;;;;;;5018641;28;25076;-64
2023/07/25 03:45:51;;;;;;;6.35;2.13;;;;;;;;;;5009983;28;25074;-64
2023/07/25 03:48:18;;;;;;;5.50;2.13;;;;;;;;;;5011578;28;25135;-64
2023/07/25 03:50:44;;;;;;;6.32;2.47;;;;;;;;;;5015329;28;25059;-64
2023/07/25 03:53:10;;;;;;;12.15;2.60;;;;;;;;;;5012755;28;25079;-64
2023/07/25 03:55:36;;;;;;;4.65;2.50;;;;;;;;;;5005687;28;25051;-64
2023/07/25 03:58:02;;;;;;;5.20;2.45;;;;;;;;;;5010069;28;25138;-63
2023/07/25 04:00:28;;;;;;;10.15;2.13;;;;;;;;;;5021726;28;25141;-65
2023/07/25 04:02:54;;;;;;;5.93;2.40;;;;;;;;;;5018291;28;25076;-64
2023/07/25 04:05:20;;;;;;;9.93;2.42;;;;;;;;;;5026160;28;25158;-63
2023/07/25 04:07:46;;;;;;;9.45;2.85;;;;;;;;;;5019049;28;25114;-65
2023/07/25 04:10:11;;;;;;;4.95;2.47;;;;;;;;;;5021311;28;25102;-64
2023/07/25 04:12:37;;;;;;;5.95;2.35;;;;;;;;;;5014010;28;25073;-64
2023/07/25 04:15:04;;;;;;;4.93;2.47;;;;;;;;;;5012624;28;25072;-64
2023/07/25 04:17:30;;;;;;;8.30;2.22;;;;;;;;;;4999902;28;25046;-64
2023/07/25 04:19:56;;;;;;;7.53;2.58;;;;;;;;;;4997844;28;25066;-63
2023/07/25 04:22:22;;;;;;;7.60;2.22;;;;;;;;;;4991414;28;25089;-64
2023/07/25 04:24:48;;;;;;;5.65;2.33;;;;;;;;;;5006909;28;25078;-64
2023/07/25 04:27:14;;;;;;;10.35;2.25;;;;;;;;;;5015756;28;25053;-64
2023/07/25 04:29:40;;;;;;;7.07;2.20;;;;;;;;;;5013386;28;25083;-64
2023/07/25 04:32:06;;;;;;;7.25;2.95;;;;;;;;;;5012928;28;25058;-64
2023/07/25 04:34:32;;;;;;;10.55;2.97;;;;;;;;;;5014857;28;25094;-65
2023/07/25 04:36:58;;;;;;;11.35;2.90;;;;;;;;;;4996858;28;25152;-64
2023/07/25 04:39:24;;;;;;;9.13;2.35;;;;;;;;;;5007297;28;25170;-65
2023/07/25 04:41:50;;;;;;;10.20;2.50;;;;;;;;;;5005980;28;25120;-64
2023/07/25 04:44:16;;;;;;;13.10;2.70;;;;;;;;;;5008801;28;25061;-65
2023/07/25 04:46:42;;;;;;;2.72;1.70;;;;;;;;;;5010324;28;25061;-65
2023/07/25 04:49:11;;;;;;;13.52;1.90;;;;;;;;;;5006337;28;25058;-65
2023/07/25 04:51:37;;;;;;;6.85;2.17;;;;;;;;;;4999218;28;25069;-65
2023/07/25 04:54:03;;;;;;;8.10;2.20;;;;;;;;;;5011928;28;25065;-62
2023/07/25 04:56:29;;;;;;;7.88;2.13;;;;;;;;;;5009317;28;25110;-64
2023/07/25 04:58:55;;;;;;;10.02;2.60;;;;;;;;;;5013074;28;25053;-64
2023/07/25 05:01:21;;;;;;;10.52;2.25;;;;;;;;;;5012693;28;25064;-63
2023/07/25 05:03:46;;;;;;;9.32;2.17;;;;;;;;;;5013079;28;25050;-63
2023/07/25 05:06:13;;;;;;;12.20;2.20;;;;;;;;;;5001459;28;25053;-65
2023/07/25 05:08:38;;;;;;;16.42;2.72;;;;;;;;;;5007152;28;25078;-64
2023/07/25 05:11:04;;;;;;;11.93;2.70;;;;;;;;;;5003903;28;25082;-63
2023/07/25 05:13:30;;;;;;;6.38;2.45;;;;;;;;;;5009223;28;25060;-65
2023/07/25 05:15:56;;;;;;;11.88;1.80;;;;;;;;;;5005867;28;25158;-64
2023/07/25 05:18:22;;;;;;;8.02;2.08;;;;;;;;;;5009363;28;25073;-64
2023/07/25 05:20:48;;;;;;;8.02;1.90;;;;;;;;;;5009697;28;25037;-64
2023/07/25 05:23:14;;;;;;;7.43;2.28;;;;;;;;;;5008621;28;25052;-64
2023/07/25 05:25:40;;;;;;;16.25;2.28;;;;;;;;;;5009963;28;25075;-65
2023/07/25 05:28:07;;;;;;;13.93;2.72;;;;;;;;;;5008218;28;25164;-64
2023/07/25 05:30:33;;;;;;;12.95;2.17;;;;;;;;;;5019003;28;25111;-64
2023/07/25 05:32:59;;;;;;;9.60;2.28;;;;;;;;;;5002424;28;25074;-63
2023/07/25 05:35:26;;;;;;;9.60;2.85;;;;;;;;;;5018145;28;25076;-64
2023/07/25 05:37:52;;;;;;;9.50;2.47;;;;;;;;;;5008695;28;25171;-65
2023/07/25 05:40:18;;;;;;;8.68;2.72;;;;;;;;;;5006107;28;25080;-64
2023/07/25 05:42:44;;;;;;;13.18;2.90;;;;;;;;;;5008776;28;25137;-65
2023/07/25 05:45:10;;;;;;;19.17;3.03;;;;;;;;;;4999317;28;25049;-64
2023/07/25 05:47:36;;;;;;;10.00;2.80;;;;;;;;;;5016797;28;25055;-64
2023/07/25 05:50:03;;;;;;;15.88;3.10;;;;;;;;;;5008154;28;25075;-65
2023/07/25 05:52:29;;;;;;;12.45;2.25;;;;;;;;;;5015654;28;25077;-64
2023/07/25 05:54:54;;;;;;;9.55;2.70;;;;;;;;;;5005036;28;25105;-65
2023/07/25 05:57:21;;;;;;;9.68;2.30;;;;;;;;;;5009152;28;25082;-64
2023/07/25 05:59:47;;;;;;;9.50;2.30;;;;;;;;;;5006755;28;25160;-64
2023/07/25 06:02:13;;;;;;;6.13;1.77;;;;;;;;;;5003287;28;25127;-64
2023/07/25 06:04:39;;;;;;;6.28;1.83;;;;;;;;;;5016595;28;25149;-65
2023/07/25 06:07:05;;;;;;;8.48;2.10;;;;;;;;;;4997803;28;25073;-65
2023/07/25 06:09:31;;;;;;;14.88;2.10;;;;;;;;;;5016612;28;25066;-65
2023/07/25 06:11:57;;;;;;;6.85;2.05;;;;;;;;;;5016030;28;25152;-66
2023/07/25 06:14:23;;;;;;;5.70;2.17;;;;;;;;;;5023315;28;25171;-65
2023/07/25 06:16:49;;;;;;;6.05;1.90;;;;;;;;;;5018287;28;25096;-65
2023/07/25 06:19:15;;;;;;;11.23;2.20;;;;;;;;;;5018350;28;25083;-65
2023/07/25 06:21:41;;;;;;;13.43;2.10;;;;;;;;;;5007792;28;25069;-65
2023/07/25 06:24:07;;;;;;;8.38;2.00;;;;;;;;;;5004442;28;25145;-66
2023/07/25 06:26:33;;;;;;;13.30;1.73;;;;;;;;;;5010855;28;25064;-65
2023/07/25 06:29:00;;;;;;;9.48;2.65;;;;;;;;;;5013602;28;25071;-65
2023/07/25 06:31:26;;;;;;;9.23;1.90;;;;;;;;;;5015739;28;25076;-65
2023/07/25 06:33:52;;;;;;;4.35;2.22;;;;;;;;;;5011179;28;25082;-65
2023/07/25 06:36:19;;;;;;;8.52;1.48;;;;;;;;;;5008918;28;25061;-64
2023/07/25 06:38:45;;;;;;;8.70;1.15;;;;;;;;;;5014631;28;25109;-64
2023/07/25 06:41:10;;;;;;;6.93;1.70;;;;;;;;;;5010460;28;25071;-66
2023/07/25 06:43:36;;;;;;;10.23;1.90;;;;;;;;;;5016219;28;25061;-63
2023/07/25 06:46:02;;;;;;;5.93;1.45;;;;;;;;;;5012774;28;25056;-63
2023/07/25 06:48:28;;;;;;;11.05;1.27;;;;;;;;;;5001901;28;25076;-63
2023/07/25 06:50:54;;;;;;;3.70;1.52;;;;;;;;;;5014552;28;25051;-63
2023/07/25 06:53:20;;;;;;;8.45;2.20;;;;;;;;;;5013020;28;25049;-65
2023/07/25 06:55:46;;;;;;;6.18;1.38;;;;;;;;;;5012520;28;25089;-65
2023/07/25 06:58:12;;;;;;;5.10;1.00;;;;;;;;;;5008143;28;25129;-64
2023/07/25 07:00:39;;;;;;;8.93;1.15;;;;;;;;;;5021654;28;25054;-63
2023/07/25 07:03:05;;;;;;;4.60;0.93;;;;;;;;;;5020204;28;25072;-63
2023/07/25 07:05:31;;;;;;;9.25;1.38;;;;;;;;;;5022128;28;25055;-64
2023/07/25 07:07:58;;;;;;;6.20;1.38;;;;;;;;;;5012514;28;25075;-63
2023/07/25 07:10:24;;;;;;;5.13;1.13;;;;;;;;;;5013539;28;25051;-66
2023/07/25 07:12:52;;;;;;;5.70;1.20;;;;;;;;;;5012361;28;25057;-64
2023/07/25 07:15:18;;;;;;;6.85;1.05;;;;;;;;;;5014494;28;25066;-64
2023/07/25 07:17:44;;;;;;;5.88;0.98;;;;;;;;;;5004470;28;25047;-64
2023/07/25 07:20:10;;;;;;;7.35;1.33;;;;;;;;;;5018396;28;25074;-63
2023/07/25 07:22:36;;;;;;;8.98;1.48;;;;;;;;;;5017938;28;25115;-64
2023/07/25 07:25:02;;;;;;;6.15;1.20;;;;;;;;;;5018156;28;25133;-64
2023/07/25 07:27:28;;;;;;;5.53;1.50;;;;;;;;;;5012865;28;25096;-63
2023/07/25 07:29:54;;;;;;;4.18;0.90;;;;;;;;;;5015698;28;25064;-63
2023/07/25 07:32:20;;;;;;;7.97;1.13;;;;;;;;;;5014456;28;25055;-63
2023/07/25 07:34:46;;;;;;;8.30;1.15;;;;;;;;;;5015087;28;25055;-64
2023/07/25 07:37:12;;;;;;;6.53;0.90;;;;;;;;;;5000599;28;25070;-64
2023/07/25 07:39:39;;;;;;;9.15;1.30;;;;;;;;;;5007033;28;25101;-64
2023/07/25 07:42:05;;;;;;;7.80;1.02;;;;;;;;;;5008250;28;25174;-63
2023/07/25 07:44:31;;;;;;;5.95;1.33;;;;;;;;;;5012289;28;25075;-63
2023/07/25 07:46:57;;;;;;;11.13;1.23;;;;;;;;;;5014692;28;25062;-64
2023/07/25 07:49:23;;;;;;;3.78;1.10;;;;;;;;;;5014463;28;25058;-64
2023/07/25 07:51:49;;;;;;;7.90;1.60;;;;;;;;;;5012160;28;25162;-63
2023/07/25 07:54:15;;;;;;;5.03;1.13;;;;;;;;;;5008792;28;25097;-63
2023/07/25 07:56:41;;;;;;;4.30;1.00;;;;;;;;;;5009668;28;25079;-63
2023/07/25 07:59:07;;;;;;;9.45;1.58;;;;;;;;;;5006780;28;25069;-64
2023/07/25 08:01:33;;;;;;;2.17;0.98;;;;;;;;;;5012806;28;25100;-63
2023/07/25 08:04:00;;;;;;;7.68;1.50;;;;;;;;;;5011129;28;25099;-63
2023/07/25 08:06:25;;;;;;;3.30;1.20;;;;;;;;;;5005681;28;25085;-62
2023/07/25 08:08:51;;;;;;;3.08;1.17;;;;;;;;;;5012181;28;25069;-63
2023/07/25 08:11:17;;;;;;;6.60;1.60;;;;;;;;;;5019487;28;25055;-63
2023/07/25 08:13:43;;;;;;;5.07;0.93;;;;;;;;;;5018486;28;25109;-64
2023/07/25 08:16:09;;;;;;;5.32;1.55;;;;;;;;;;5014234;28;25105;-64
2023/07/25 08:18:35;;;;;;;6.10;1.63;;;;;;;;;;5007081;28;25140;-61
2023/07/25 08:21:01;;;;;;;6.22;1.60;;;;;;;;;;5008530;28;25158;-63
2023/07/25 08:23:27;;;;;;;4.00;0.88;;;;;;;;;;5019024;28;25120;-64
2023/07/25 08:25:57;;;;;;;5.63;1.23;;;;;;;;;;5015821;28;25099;-64
2023/07/25 08:28:22;;;;;;;3.00;1.35;;;;;;;;;;5011854;28;25107;-63
2023/07/25 08:30:48;;;;;;;6.30;1.17;;;;;;;;;;5024364;28;25100;-64
2023/07/25 08:33:19;;;;;;;5.18;1.08;;;;;;;;;;5010493;28;25058;-63
2023/07/25 08:35:47;;;;;;;8.60;0.90;;;;;;;;;;5013701;28;25057;-64
2023/07/25 08:38:13;;;;;;;6.05;1.17;;;;;;;;;;5016202;28;25142;-64
2023/07/25 08:40:39;;;;;;;4.32;0.77;;;;;;;;;;5002639;28;25097;-63
2023/07/25 08:43:08;;;;;;;7.95;2.05;;;;;;;;;;5008513;28;25103;-65
2023/07/25 08:45:35;;;;;;;4.80;0.90;;;;;;;;;;5011955;28;25076;-63
2023/07/25 08:48:04;;;;;;;5.10;0.70;;;;;;;;;;5007870;28;25111;-63
2023/07/25 08:50:31;;;;;;;4.57;0.93;;;;;;;;;;5014662;28;25053;-63
2023/07/25 08:52:57;;;;;;;5.90;0.75;;;;;;;;;;4999331;28;25091;-65
2023/07/25 08:55:23;;;;;;;3.40;0.70;;;;;;;;;;5006729;28;25110;-65
2023/07/25 08:57:51;;;;;;;3.58;0.70;;;;;;;;;;5016255;28;25105;-63
2023/07/25 09:00:17;;;;;;;2.10;0.73;;;;;;;;;;5016076;28;25046;-63
2023/07/25 09:02:43;;;;;;;1.80;0.60;;;;;;;;;;5004923;28;25100;-66
2023/07/25 09:05:10;;;;;;;3.33;0.52;;;;;;;;;;5011428;28;25092;-64
2023/07/25 09:07:36;;;;;;;3.03;0.77;;;;;;;;;;5010095;28;25048;-64
2023/07/25 09:10:02;;;;;;;3.88;0.57;;;;;;;;;;5010204;28;25110;-65
2023/07/25 09:12:28;;;;;;;2.35;0.68;;;;;;;;;;5018305;28;25098;-64
2023/07/25 09:14:54;;;;;;;1.98;0.70;;;;;;;;;;5016309;28;25094;-64
2023/07/25 09:17:20;;;;;;;4.78;0.90;;;;;;;;;;5012052;28;25141;-64
2023/07/25 09:19:47;;;;;;;3.05;0.70;;;;;;;;;;5013371;28;25095;-64
2023/07/25 09:22:27;;;;;;;1.77;0.65;;;;;;;;;;5009010;28;25083;-64
2023/07/25 09:24:53;;;;;;;4.78;0.82;;;;;;;;;;5018640;28;25055;-64
2023/07/25 09:27:19;;;;;;;17.88;6.50;;;;;;;;;;5010844;28;25076;-64
2023/07/25 09:29:46;;;;;;;3.05;0.80;;;;;;;;;;5005287;28;25098;-64
2023/07/25 09:32:28;;;;;;;6.57;1.05;;;;;;;;;;5001310;28;25064;-64
2023/07/25 09:35:01;;;;;;;2.25;0.47;;;;;;;;;;5010056;28;25049;-64
2023/07/25 09:37:30;;;;;;;5.03;0.70;;;;;;;;;;5012165;28;25060;-64
2023/07/25 09:39:56;;;;;;;3.70;0.60;;;;;;;;;;5016039;28;24808;-65
2023/07/25 09:42:23;;;;;;;5.03;1.05;;;;;;;;;;5014818;28;25141;-65
2023/07/25 09:44:51;;;;;;;4.28;0.70;;;;;;;;;;5005514;28;25105;-64
2023/07/25 09:47:21;;;;;;;2.25;0.50;;;;;;;;;;5011565;28;25050;-64
2023/07/25 09:49:50;;;;;;;5.38;0.60;;;;;;;;;;5017693;28;25101;-65
2023/07/25 09:52:16;;;;;;;2.45;0.73;;;;;;;;;;5007937;28;25134;-65
2023/07/25 09:54:42;;;;;;;2.63;0.70;;;;;;;;;;5011642;28;25097;-63
2023/07/25 09:57:09;;;;;;;1.60;0.50;;;;;;;;;;4997485;28;25141;-64
2023/07/25 09:59:35;;;;;;;3.47;0.75;;;;;;;;;;5004649;28;25064;-63
2023/07/25 10:02:01;;;;;;;2.35;0.60;;;;;;;;;;5029444;28;25053;-63
2023/07/25 10:04:27;;;;;;;6.75;0.60;;;;;;;;;;5021015;28;25081;-68
2023/07/25 10:06:53;;;;;;;2.22;0.90;;;;;;;;;;5026323;28;25084;-64
2023/07/25 10:09:19;;;;;;;6.03;0.90;;;;;;;;;;5017759;28;25068;-64
2023/07/25 10:11:47;;;;;;;1.75;0.75;;;;;;;;;;5012653;28;25055;-64
2023/07/25 10:14:13;;;;;;;1.90;0.55;;;;;;;;;;5006880;28;25150;-65
2023/07/25 10:16:41;;;;;;;1.75;0.50;;;;;;;;;;5010807;28;25053;-63
2023/07/25 10:19:07;;;;;;;4.07;0.63;;;;;;;;;;5005582;28;25078;-63
2023/07/25 10:21:49;;;;;;;2.20;0.77;;;;;;;;;;5021450;28;25085;-65
2023/07/25 10:24:15;;;;;;;1.17;0.65;;;;;;;;;;5005653;28;25042;-65
2023/07/25 10:26:57;;;;;;;2.80;0.80;;;;;;;;;;5002784;28;25088;-64
2023/07/25 10:29:37;;;;;;;6.25;1.15;;;;;;;;;;5019661;28;25128;-64
2023/07/25 10:32:03;;;;;;;1.75;0.70;;;;;;;;;;5016202;28;25117;-63
2023/07/25 10:34:44;;;;;;;5.07;0.70;;;;;;;;;;5011669;28;25046;-64
2023/07/25 10:37:27;;;;;;;0.55;0.43;;;;;;;;;;5012937;28;25094;-63
2023/07/25 10:40:12;;;;;;;4.13;0.73;;;;;;;;;;5014874;28;25054;-63
2023/07/25 10:42:47;;;;;;;6.32;0.70;;;;;;;;;;5014914;28;25076;-64
2023/07/25 10:45:42;;;;;;;4.97;0.90;;;;;;;;;;5013880;28;25066;-64
2023/07/25 10:48:26;;;;;;;0.88;0.52;;;;;;;;;;5020716;28;25107;-65
2023/07/25 10:50:54;;;;;;;3.08;0.70;;;;;;;;;;5004403;28;25093;-64
2023/07/25 10:53:20;;;;;;;2.28;0.60;;;;;;;;;;5012609;28;25097;-65
2023/07/25 10:56:04;;;;;;;2.83;0.60;;;;;;;;;;5008384;28;25074;-67
2023/07/25 10:58:31;;;;;;;2.15;0.63;;;;;;;;;;5014592;28;25135;-64
2023/07/25 11:00:57;;;;;;;5.78;0.70;;;;;;;;;;5017714;28;25075;-66
2023/07/25 11:03:31;;;;;;;4.32;0.75;;;;;;;;;;5007515;28;25065;-62
2023/07/25 11:06:09;;;;;;;1.80;0.60;;;;;;;;;;5017631;28;25087;-65
2023/07/25 11:08:36;;;;;;;0.85;0.70;;;;;;;;;;5022286;28;25087;-66
2023/07/25 11:11:06;;;;;;;1.42;0.40;;;;;;;;;;5003117;28;25140;-64
2023/07/25 11:13:33;;;;;;;5.07;0.40;;;;;;;;;;4996261;28;25059;-64
2023/07/25 11:16:01;;;;;;;2.67;0.60;;;;;;;;;;5010913;28;25065;-64
2023/07/25 11:18:27;;;;;;;1.00;0.60;;;;;;;;;;5002267;28;25149;-64
2023/07/25 11:21:07;;;;;;;3.40;0.85;;;;;;;;;;5016697;28;25075;-64
2023/07/25 11:23:33;;;;;;;4.13;0.45;;;;;;;;;;4996347;28;25067;-64
2023/07/25 11:26:01;;;;;;;2.42;0.93;;;;;;;;;;5001761;28;25079;-66
2023/07/25 11:28:27;;;;;;;4.70;0.45;;;;;;;;;;5014135;28;25067;-64
2023/07/25 11:30:53;;;;;;;2.40;0.63;;;;;;;;;;5013037;28;25063;-63
2023/07/25 11:33:19;;;;;;;3.05;0.60;;;;;;;;;;5008466;28;25137;-63
2023/07/25 11:35:45;;;;;;;5.57;0.70;;;;;;;;;;5007824;28;25059;-64
2023/07/25 11:38:11;;;;;;;4.40;0.70;;;;;;;;;;5010466;28;25089;-63
2023/07/25 11:40:40;;;;;;;3.30;0.50;;;;;;;;;;5015850;28;25160;-64
2023/07/25 11:43:12;;;;;;;0.63;0.30;;;;;;;;;;5020644;28;25186;-64
2023/07/25 11:45:39;;;;;;;3.75;0.50;;;;;;;;;;5022232;28;25078;-66
2023/07/25 11:48:09;;;;;;;2.15;0.80;;;;;;;;;;5009938;28;25125;-63
2023/07/25 11:50:35;;;;;;;3.33;0.60;;;;;;;;;;5014456;28;25072;-63
2023/07/25 11:53:02;;;;;;;1.67;0.73;;;;;;;;;;5023462;28;25055;-65
2023/07/25 11:55:28;;;;;;;3.42;0.60;;;;;;;;;;5025282;28;25090;-64
2023/07/25 11:57:54;;;;;;;3.15;0.90;;;;;;;;;;5014564;28;25060;-65
2023/07/25 12:00:21;;;;;;;2.05;0.60;;;;;;;;;;5026375;28;25085;-64
2023/07/25 12:02:47;;;;;;;3.83;0.73;;;;;;;;;;5023449;28;25067;-65
2023/07/25 12:05:27;;;;;;;2.85;0.40;;;;;;;;;;5034882;28;25054;-65
2023/07/25 12:07:56;;;;;;;3.47;0.65;;;;;;;;;;5023871;28;25088;-64
2023/07/25 12:10:28;;;;;;;4.28;0.50;;;;;;;;;;5010845;28;25152;-64
2023/07/25 12:12:55;;;;;;;2.42;0.50;;;;;;;;;;5012249;28;25072;-63
2023/07/25 12:15:23;;;;;;;1.00;0.60;;;;;;;;;;5010929;28;25144;-64
2023/07/25 12:17:49;;;;;;;0.50;0.40;;;;;;;;;;5012674;28;25062;-65
2023/07/25 12:20:15;;;;;;;2.92;0.50;;;;;;;;;;5025372;28;25058;-66
2023/07/25 12:22:41;;;;;;;1.63;0.50;;;;;;;;;;5009753;28;25072;-63
2023/07/25 12:25:07;;;;;;;1.38;0.40;;;;;;;;;;5009668;28;25089;-65
2023/07/25 12:27:34;;;;;;;1.27;0.50;;;;;;;;;;5009802;28;25073;-66
2023/07/25 12:30:00;;;;;;;2.85;0.40;;;;;;;;;;5005859;28;25117;-66
2023/07/25 12:32:26;;;;;;;1.15;0.60;;;;;;;;;;5018928;28;25066;-64
2023/07/25 12:34:59;;;;;;;3.05;0.75;;;;;;;;;;5011622;28;25057;-64
2023/07/25 12:37:25;;;;;;;2.83;0.93;;;;;;;;;;5012497;28;25062;-64
2023/07/25 12:39:51;;;;;;;1.70;0.50;;;;;;;;;;5012762;28;25077;-65
2023/07/25 12:42:17;;;;;;;2.65;0.43;;;;;;;;;;4999808;28;25086;-63
2023/07/25 12:44:43;;;;;;;0.85;0.40;;;;;;;;;;5012678;28;25058;-64
2023/07/25 12:47:09;;;;;;;1.45;0.63;;;;;;;;;;5013045;28;25052;-66
2023/07/25 12:49:35;;;;;;;0.75;0.65;;;;;;;;;;5004940;28;25066;-64
2023/07/25 12:52:01;;;;;;;3.00;0.43;;;;;;;;;;5013592;28;25071;-64
2023/07/25 12:54:27;;;;;;;1.27;0.30;;;;;;;;;;5012588;28;25099;-64
2023/07/25 12:56:53;;;;;;;0.65;0.40;;;;;;;;;;5009889;28;25090;-63
2023/07/25 12:59:20;;;;;;;1.65;0.57;;;;;;;;;;5010057;28;25166;-64
2023/07/25 13:01:47;;;;;;;0.47;0.38;;;;;;;;;;5005983;28;25053;-65
2023/07/25 13:04:13;;;;;;;1.73;0.50;;;;;;;;;;5006927;28;25049;-64
2023/07/25 13:06:40;;;;;;;2.67;0.52;;;;;;;;;;5017509;28;25088;-64
2023/07/25 13:09:06;;;;;;;1.85;0.55;;;;;;;;;;5014747;28;25155;-64
2023/07/25 13:11:32;;;;;;;1.30;0.32;;;;;;;;;;5018092;28;25073;-64
2023/07/25 13:13:58;;;;;;;0.40;0.20;;;;;;;;;;5006357;28;25064;-64
2023/07/25 13:16:24;;;;;;;1.00;0.60;;;;;;;;;;5015282;28;25170;-63
2023/07/25 13:18:50;;;;;;;0.70;0.60;;;;;;;;;;5004366;28;25044;-64
2023/07/25 13:21:16;;;;;;;2.90;0.30;;;;;;;;;;5017102;28;25056;-63
2023/07/25 13:23:42;;;;;;;3.05;0.60;;;;;;;;;;5012720;28;25130;-64
2023/07/25 13:26:08;;;;;;;4.25;0.40;;;;;;;;;;5007749;28;25064;-64
2023/07/25 13:28:34;;;;;;;0.52;0.38;;;;;;;;;;5006333;28;25140;-67
2023/07/25 13:31:00;;;;;;;2.40;0.40;;;;;;;;;;5003251;28;25177;-65
2023/07/25 13:33:26;;;;;;;1.98;0.60;;;;;;;;;;5017095;28;25083;-66
2023/07/25 13:35:52;;;;;;;1.85;0.40;;;;;;;;;;5016827;28;25093;-65
2023/07/25 13:38:18;;;;;;;0.93;0.50;;;;;;;;;;5010695;28;25147;-64
2023/07/25 13:40:44;;;;;;;1.83;0.50;;;;;;;;;;5005839;28;25077;-64
2023/07/25 13:43:10;;;;;;;3.22;0.50;;;;;;;;;;5003947;28;25055;-64
2023/07/25 13:45:36;;;;;;;1.95;0.38;;;;;;;;;;5009456;28;25130;-64
2023/07/25 13:48:02;;;;;;;0.30;0.30;;;;;;;;;;5014749;28;25065;-63
2023/07/25 13:50:28;;;;;;;0.25;0.20;;;;;;;;;;5009013;28;25068;-65
2023/07/25 13:52:54;;;;;;;1.23;0.50;;;;;;;;;;5010111;28;25146;-65
2023/07/25 13:55:20;;;;;;;2.10;0.50;;;;;;;;;;5014203;28;25067;-64
2023/07/25 13:57:46;;;;;;;0.80;0.80;;;;;;;;;;5009494;28;25077;-65
2023/07/25 14:00:12;;;;;;;2.55;0.80;;;;;;;;;;4997112;28;24965;-65
2023/07/25 14:02:38;;;;;;;0.43;0.40;;;;;;;;;;5004829;28;25158;-67
2023/07/25 14:05:04;;;;;;;1.90;0.40;;;;;;;;;;5011071;28;25142;-65
2023/07/25 14:07:31;;;;;;;5.35;0.55;;;;;;;;;;5013093;28;25076;-65
2023/07/25 14:09:57;;;;;;;3.92;0.40;;;;;;;;;;5003508;28;25090;-65
2023/07/25 14:12:23;;;;;;;1.75;0.40;;;;;;;;;;5008741;28;25101;-65
2023/07/25 14:14:49;;;;;;;0.70;0.70;;;;;;;;;;4997585;28;25121;-66
2023/07/25 14:17:15;;;;;;;1.05;0.50;;;;;;;;;;5005103;28;25146;-66
2023/07/25 14:19:42;;;;;;;2.63;0.70;;;;;;;;;;5001314;28;25059;-65
2023/07/25 14:22:08;;;;;;;0.60;0.40;;;;;;;;;;4991940;28;25074;-65
2023/07/25 14:24:34;;;;;;;1.85;0.60;;;;;;;;;;5015444;28;25066;-65
2023/07/25 14:27:01;;;;;;;2.95;0.60;;;;;;;;;;5011697;28;25068;-65
2023/07/25 14:29:27;;;;;;;1.55;0.40;;;;;;;;;;5008058;28;25068;-65
2023/07/25 14:31:53;;;;;;;1.75;0.70;;;;;;;;;;5010985;28;25129;-64
2023/07/25 14:34:19;;;;;;;1.70;0.60;;;;;;;;;;5009722;28;25055;-64
2023/07/25 14:36:45;;;;;;;2.53;0.60;;;;;;;;;;5013604;28;25068;-65
2023/07/25 14:39:11;;;;;;;0.50;0.50;;;;;;;;;;5004649;28;25075;-63